Mitcham, United Kingdom
Current Conditions -  °F | °C
As of 3:50 PM on Sunday 25 Jan 2015 (Local Time) from EGKB Reporting Station
Broken Clouds Broken Clouds  
Wind Chill: 39°   Ceiling: 2000
Heat Index: 45°   Visibility: 6mi
Dew Point: 36°   Wind: 12mph
Humidity: 71%   Direction: 260°W
Pressure: 30.36"   Gusts: NA
Location:  51.41°N, 0.15°W
Report Text: EGKB 251550Z 26010KT 9999 BKN020 07/02 Q1028
Loading
Personal Weather Stations






























Interactive Weather Map New forecast layout! Learn more

10-Day Weather Forecast

Advertisements
Track Severe Weather on mobile